sensor_id;sensor_type;location;lat;lon;timestamp;temperature;humidity
1538;DHT22;12022;52.266;10.522;2022-09-09T00:01:37;15.40;99.90
1538;DHT22;12022;52.266;10.522;2022-09-09T00:09:27;15.40;99.90
1538;DHT22;12022;52.266;10.522;2022-09-09T00:12:20;15.40;99.90
1538;DHT22;12022;52.266;10.522;2022-09-09T00:14:56;15.40;99.90
1538;DHT22;12022;52.266;10.522;2022-09-09T00:20:32;15.50;99.90
1538;DHT22;12022;52.266;10.522;2022-09-09T00:23:09;15.50;99.90
1538;DHT22;12022;52.266;10.522;2022-09-09T00:25:46;15.50;99.90
1538;DHT22;12022;52.266;10.522;2022-09-09T00:28:21;15.60;99.90
1538;DHT22;12022;52.266;10.522;2022-09-09T00:30:49;15.60;99.90
1538;DHT22;12022;52.266;10.522;2022-09-09T00:33:22;15.70;99.90
1538;DHT22;12022;52.266;10.522;2022-09-09T00:35:56;15.70;99.90
1538;DHT22;12022;52.266;10.522;2022-09-09T00:38:37;15.70;99.90
1538;DHT22;12022;52.266;10.522;2022-09-09T00:44:33;15.70;99.90
1538;DHT22;12022;52.266;10.522;2022-09-09T00:47:25;15.70;99.90
1538;DHT22;12022;52.266;10.522;2022-09-09T00:58:08;15.70;99.90
1538;DHT22;12022;52.266;10.522;2022-09-09T01:00:45;15.70;99.90
1538;DHT22;12022;52.266;10.522;2022-09-09T01:03:46;15.80;99.90
1538;DHT22;12022;52.266;10.522;2022-09-09T01:06:32;15.80;99.90
1538;DHT22;12022;52.266;10.522;2022-09-09T01:17:39;15.90;99.90
1538;DHT22;12022;52.266;10.522;2022-09-09T01:28:15;15.70;99.90
1538;DHT22;12022;52.266;10.522;2022-09-09T01:30:45;15.70;99.90
1538;DHT22;12022;52.266;10.522;2022-09-09T01:33:17;15.60;99.90
1538;DHT22;12022;52.266;10.522;2022-09-09T01:36:13;15.60;99.90
1538;DHT22;12022;52.266;10.522;2022-09-09T01:38:41;15.60;99.90
1538;DHT22;12022;52.266;10.522;2022-09-09T01:41:08;15.50;99.90
1538;DHT22;12022;52.266;10.522;2022-09-09T01:43:35;15.50;99.90
1538;DHT22;12022;52.266;10.522;2022-09-09T01:46:02;15.50;99.90
1538;DHT22;12022;52.266;10.522;2022-09-09T01:48:30;15.40;99.90
1538;DHT22;12022;52.266;10.522;2022-09-09T01:50:57;15.40;99.90
1538;DHT22;12022;52.266;10.522;2022-09-09T01:53:24;15.40;99.90
1538;DHT22;12022;52.266;10.522;2022-09-09T01:56:17;15.40;99.90
1538;DHT22;12022;52.266;10.522;2022-09-09T02:01:52;15.30;99.90
1538;DHT22;12022;52.266;10.522;2022-09-09T02:06:54;15.30;99.90
1538;DHT22;12022;52.266;10.522;2022-09-09T02:09:24;15.30;99.90
1538;DHT22;12022;52.266;10.522;2022-09-09T02:12:08;15.20;99.90
1538;DHT22;12022;52.266;10.522;2022-09-09T02:14:40;15.30;99.90
1538;DHT22;12022;52.266;10.522;2022-09-09T02:17:10;15.30;99.90
1538;DHT22;12022;52.266;10.522;2022-09-09T02:19:48;15.30;99.90
1538;DHT22;12022;52.266;10.522;2022-09-09T02:22:19;15.30;99.90
1538;DHT22;12022;52.266;10.522;2022-09-09T02:24:49;15.30;99.90
1538;DHT22;12022;52.266;10.522;2022-09-09T02:27:19;15.30;99.90
1538;DHT22;12022;52.266;10.522;2022-09-09T02:29:49;15.30;99.90
1538;DHT22;12022;52.266;10.522;2022-09-09T02:32:21;15.30;99.90
1538;DHT22;12022;52.266;10.522;2022-09-09T02:34:53;15.30;99.90
1538;DHT22;12022;52.266;10.522;2022-09-09T02:37:27;15.30;99.90
1538;DHT22;12022;52.266;10.522;2022-09-09T02:39:56;15.30;99.90
1538;DHT22;12022;52.266;10.522;2022-09-09T02:42:23;15.30;99.90
1538;DHT22;12022;52.266;10.522;2022-09-09T02:44:53;15.30;99.90
1538;DHT22;12022;52.266;10.522;2022-09-09T02:47:30;15.30;99.90
1538;DHT22;12022;52.266;10.522;2022-09-09T02:53:08;15.40;99.90
1538;DHT22;12022;52.266;10.522;2022-09-09T02:56:05;15.40;99.90
1538;DHT22;12022;52.266;10.522;2022-09-09T02:58:36;15.40;99.90
1538;DHT22;12022;52.266;10.522;2022-09-09T03:01:03;15.40;99.90
1538;DHT22;12022;52.266;10.522;2022-09-09T03:03:31;15.40;99.90
1538;DHT22;12022;52.266;10.522;2022-09-09T03:05:58;15.40;99.90
1538;DHT22;12022;52.266;10.522;2022-09-09T03:08:25;15.40;99.90
1538;DHT22;12022;52.266;10.522;2022-09-09T03:10:58;15.50;99.90
1538;DHT22;12022;52.266;10.522;2022-09-09T03:13:26;15.50;99.90
1538;DHT22;12022;52.266;10.522;2022-09-09T03:15:53;15.50;99.90
1538;DHT22;12022;52.266;10.522;2022-09-09T03:18:19;15.50;99.90
1538;DHT22;12022;52.266;10.522;2022-09-09T03:20:47;15.50;99.90
1538;DHT22;12022;52.266;10.522;2022-09-09T03:23:17;15.40;99.90
1538;DHT22;12022;52.266;10.522;2022-09-09T03:25:48;15.40;99.90
1538;DHT22;12022;52.266;10.522;2022-09-09T03:28:15;15.40;99.90
1538;DHT22;12022;52.266;10.522;2022-09-09T03:30:42;15.30;99.90
1538;DHT22;12022;52.266;10.522;2022-09-09T03:33:09;15.30;99.90
1538;DHT22;12022;52.266;10.522;2022-09-09T03:35:36;15.30;99.90
1538;DHT22;12022;52.266;10.522;2022-09-09T03:38:03;15.30;99.90
1538;DHT22;12022;52.266;10.522;2022-09-09T03:40:30;15.30;99.90
1538;DHT22;12022;52.266;10.522;2022-09-09T03:42:57;15.30;99.90
1538;DHT22;12022;52.266;10.522;2022-09-09T03:45:24;15.30;99.90
1538;DHT22;12022;52.266;10.522;2022-09-09T03:47:51;15.30;99.90
1538;DHT22;12022;52.266;10.522;2022-09-09T03:50:18;15.40;99.90
1538;DHT22;12022;52.266;10.522;2022-09-09T03:52:45;15.40;99.90
1538;DHT22;12022;52.266;10.522;2022-09-09T03:55:13;15.50;99.90
1538;DHT22;12022;52.266;10.522;2022-09-09T03:57:40;15.50;99.90
1538;DHT22;12022;52.266;10.522;2022-09-09T04:00:08;15.60;99.90
1538;DHT22;12022;52.266;10.522;2022-09-09T04:02:35;15.60;99.90
1538;DHT22;12022;52.266;10.522;2022-09-09T04:05:02;15.60;99.90
1538;DHT22;12022;52.266;10.522;2022-09-09T04:07:30;15.60;99.90
1538;DHT22;12022;52.266;10.522;2022-09-09T04:09:56;15.60;99.90
1538;DHT22;12022;52.266;10.522;2022-09-09T04:12:23;15.60;99.90
1538;DHT22;12022;52.266;10.522;2022-09-09T04:14:50;15.70;99.90
1538;DHT22;12022;52.266;10.522;2022-09-09T04:17:17;15.70;99.90
1538;DHT22;12022;52.266;10.522;2022-09-09T04:19:44;15.80;99.90
1538;DHT22;12022;52.266;10.522;2022-09-09T04:22:11;15.80;99.90
1538;DHT22;12022;52.266;10.522;2022-09-09T04:24:38;15.80;99.90
1538;DHT22;12022;52.266;10.522;2022-09-09T04:27:05;15.90;99.90
1538;DHT22;12022;52.266;10.522;2022-09-09T04:29:32;15.90;99.90
1538;DHT22;12022;52.266;10.522;2022-09-09T04:32:00;16.00;99.90
1538;DHT22;12022;52.266;10.522;2022-09-09T04:34:27;16.00;99.90
1538;DHT22;12022;52.266;10.522;2022-09-09T04:36:54;16.10;99.90
1538;DHT22;12022;52.266;10.522;2022-09-09T04:39:23;16.10;99.90
1538;DHT22;12022;52.266;10.522;2022-09-09T04:41:49;16.10;99.90
1538;DHT22;12022;52.266;10.522;2022-09-09T04:44:16;16.20;99.90
1538;DHT22;12022;52.266;10.522;2022-09-09T04:46:43;16.20;99.90
1538;DHT22;12022;52.266;10.522;2022-09-09T04:49:11;16.20;99.90
1538;DHT22;12022;52.266;10.522;2022-09-09T04:51:41;16.30;99.90
1538;DHT22;12022;52.266;10.522;2022-09-09T04:54:08;16.20;99.90
1538;DHT22;12022;52.266;10.522;2022-09-09T04:56:35;16.30;99.90
1538;DHT22;12022;52.266;10.522;2022-09-09T04:59:02;16.30;99.90
1538;DHT22;12022;52.266;10.522;2022-09-09T05:01:30;16.30;99.90
1538;DHT22;12022;52.266;10.522;2022-09-09T05:03:57;16.40;99.90
1538;DHT22;12022;52.266;10.522;2022-09-09T05:06:24;16.40;99.90
1538;DHT22;12022;52.266;10.522;2022-09-09T05:08:51;16.50;99.90
1538;DHT22;12022;52.266;10.522;2022-09-09T05:11:21;16.50;99.90
1538;DHT22;12022;52.266;10.522;2022-09-09T05:13:50;16.60;99.90
1538;DHT22;12022;52.266;10.522;2022-09-09T05:16:18;16.60;99.90
1538;DHT22;12022;52.266;10.522;2022-09-09T05:18:46;16.70;99.90
1538;DHT22;12022;52.266;10.522;2022-09-09T05:21:15;16.70;99.90
1538;DHT22;12022;52.266;10.522;2022-09-09T05:23:42;16.80;99.90
1538;DHT22;12022;52.266;10.522;2022-09-09T05:26:13;16.90;99.90
1538;DHT22;12022;52.266;10.522;2022-09-09T05:28:44;17.00;99.90
1538;DHT22;12022;52.266;10.522;2022-09-09T05:31:12;17.00;99.90
1538;DHT22;12022;52.266;10.522;2022-09-09T05:33:41;17.10;99.90
1538;DHT22;12022;52.266;10.522;2022-09-09T05:36:11;17.20;99.90
1538;DHT22;12022;52.266;10.522;2022-09-09T05:38:41;17.40;99.90
1538;DHT22;12022;52.266;10.522;2022-09-09T05:41:09;17.50;99.90
1538;DHT22;12022;52.266;10.522;2022-09-09T05:43:39;17.50;99.90
1538;DHT22;12022;52.266;10.522;2022-09-09T05:46:07;17.60;99.90
1538;DHT22;12022;52.266;10.522;2022-09-09T05:48:37;17.70;99.90
1538;DHT22;12022;52.266;10.522;2022-09-09T05:51:06;17.90;99.90
1538;DHT22;12022;52.266;10.522;2022-09-09T05:53:36;18.00;99.90
1538;DHT22;12022;52.266;10.522;2022-09-09T05:56:12;18.00;99.90
1538;DHT22;12022;52.266;10.522;2022-09-09T05:58:41;18.10;99.90
1538;DHT22;12022;52.266;10.522;2022-09-09T06:01:13;18.00;99.90
1538;DHT22;12022;52.266;10.522;2022-09-09T06:03:42;18.00;99.90
1538;DHT22;12022;52.266;10.522;2022-09-09T06:06:13;18.00;99.90
1538;DHT22;12022;52.266;10.522;2022-09-09T06:08:42;18.00;99.90
1538;DHT22;12022;52.266;10.522;2022-09-09T06:11:31;18.00;99.90
1538;DHT22;12022;52.266;10.522;2022-09-09T06:14:01;18.00;99.90
1538;DHT22;12022;52.266;10.522;2022-09-09T06:16:30;18.00;99.90
1538;DHT22;12022;52.266;10.522;2022-09-09T06:19:01;18.00;99.90
1538;DHT22;12022;52.266;10.522;2022-09-09T06:21:38;18.00;99.90
1538;DHT22;12022;52.266;10.522;2022-09-09T06:24:06;18.20;99.90
1538;DHT22;12022;52.266;10.522;2022-09-09T06:26:38;18.30;99.90
1538;DHT22;12022;52.266;10.522;2022-09-09T06:29:11;18.70;99.90
1538;DHT22;12022;52.266;10.522;2022-09-09T06:31:39;19.10;99.90
1538;DHT22;12022;52.266;10.522;2022-09-09T06:34:18;19.90;99.90
1538;DHT22;12022;52.266;10.522;2022-09-09T06:36:57;20.30;99.90
1538;DHT22;12022;52.266;10.522;2022-09-09T06:39:29;20.70;99.90
1538;DHT22;12022;52.266;10.522;2022-09-09T06:41:58;21.10;99.90
1538;DHT22;12022;52.266;10.522;2022-09-09T06:47:29;21.40;99.90
1538;DHT22;12022;52.266;10.522;2022-09-09T06:49:56;21.40;99.90
1538;DHT22;12022;52.266;10.522;2022-09-09T06:52:26;21.50;99.90
1538;DHT22;12022;52.266;10.522;2022-09-09T06:54:54;21.50;99.90
1538;DHT22;12022;52.266;10.522;2022-09-09T06:57:30;21.50;99.90
1538;DHT22;12022;52.266;10.522;2022-09-09T07:00:04;21.50;99.90
1538;DHT22;12022;52.266;10.522;2022-09-09T07:02:31;21.80;99.90
1538;DHT22;12022;52.266;10.522;2022-09-09T07:05:02;23.20;99.90
1538;DHT22;12022;52.266;10.522;2022-09-09T07:07:29;24.40;99.90
1538;DHT22;12022;52.266;10.522;2022-09-09T07:09:57;24.70;99.90
1538;DHT22;12022;52.266;10.522;2022-09-09T07:12:24;24.40;99.90
1538;DHT22;12022;52.266;10.522;2022-09-09T07:14:54;24.00;99.90
1538;DHT22;12022;52.266;10.522;2022-09-09T07:17:21;23.60;99.90
1538;DHT22;12022;52.266;10.522;2022-09-09T07:19:48;23.30;99.90
1538;DHT22;12022;52.266;10.522;2022-09-09T07:22:15;23.10;99.90
1538;DHT22;12022;52.266;10.522;2022-09-09T07:24:42;22.80;99.90
1538;DHT22;12022;52.266;10.522;2022-09-09T07:27:11;22.50;99.90
1538;DHT22;12022;52.266;10.522;2022-09-09T07:29:38;22.40;99.90
1538;DHT22;12022;52.266;10.522;2022-09-09T07:32:05;22.30;99.90
1538;DHT22;12022;52.266;10.522;2022-09-09T07:34:32;22.20;99.90
1538;DHT22;12022;52.266;10.522;2022-09-09T07:37:00;22.20;99.90
1538;DHT22;12022;52.266;10.522;2022-09-09T07:39:27;22.20;99.90
1538;DHT22;12022;52.266;10.522;2022-09-09T07:41:56;22.20;99.90
1538;DHT22;12022;52.266;10.522;2022-09-09T07:44:24;22.20;99.90
1538;DHT22;12022;52.266;10.522;2022-09-09T07:46:54;22.20;99.90
1538;DHT22;12022;52.266;10.522;2022-09-09T07:49:21;22.10;99.90
1538;DHT22;12022;52.266;10.522;2022-09-09T07:51:56;22.10;99.90
1538;DHT22;12022;52.266;10.522;2022-09-09T07:54:24;22.20;99.90
1538;DHT22;12022;52.266;10.522;2022-09-09T07:56:51;22.20;99.90
1538;DHT22;12022;52.266;10.522;2022-09-09T07:59:19;22.30;99.90
1538;DHT22;12022;52.266;10.522;2022-09-09T08:01:50;22.40;99.90
1538;DHT22;12022;52.266;10.522;2022-09-09T08:04:22;22.50;99.90
1538;DHT22;12022;52.266;10.522;2022-09-09T08:06:52;22.50;99.90
1538;DHT22;12022;52.266;10.522;2022-09-09T08:09:20;22.60;99.90
1538;DHT22;12022;52.266;10.522;2022-09-09T08:11:47;22.60;99.90
1538;DHT22;12022;52.266;10.522;2022-09-09T08:14:14;22.60;99.90
1538;DHT22;12022;52.266;10.522;2022-09-09T08:16:44;22.60;99.90
1538;DHT22;12022;52.266;10.522;2022-09-09T08:19:12;22.60;99.90
1538;DHT22;12022;52.266;10.522;2022-09-09T08:21:43;22.60;99.90
1538;DHT22;12022;52.266;10.522;2022-09-09T08:24:11;22.60;99.90
1538;DHT22;12022;52.266;10.522;2022-09-09T08:26:40;22.70;99.90
1538;DHT22;12022;52.266;10.522;2022-09-09T08:29:09;22.70;99.90
1538;DHT22;12022;52.266;10.522;2022-09-09T08:31:48;22.80;99.90
1538;DHT22;12022;52.266;10.522;2022-09-09T08:34:15;22.70;99.90
1538;DHT22;12022;52.266;10.522;2022-09-09T08:36:44;22.70;99.90
1538;DHT22;12022;52.266;10.522;2022-09-09T08:39:16;22.60;99.90
1538;DHT22;12022;52.266;10.522;2022-09-09T08:47:43;23.20;99.90
1538;DHT22;12022;52.266;10.522;2022-09-09T08:50:27;23.50;99.90
1538;DHT22;12022;52.266;10.522;2022-09-09T08:55:43;24.30;99.90
1538;DHT22;12022;52.266;10.522;2022-09-09T09:00:54;24.60;99.90
1538;DHT22;12022;52.266;10.522;2022-09-09T09:06:21;24.40;99.90
1538;DHT22;12022;52.266;10.522;2022-09-09T09:09:18;24.40;99.90
1538;DHT22;12022;52.266;10.522;2022-09-09T09:11:58;24.40;99.90
1538;DHT22;12022;52.266;10.522;2022-09-09T09:14:33;24.20;99.90
1538;DHT22;12022;52.266;10.522;2022-09-09T09:17:04;23.90;99.90
1538;DHT22;12022;52.266;10.522;2022-09-09T09:19:35;23.70;99.90
1538;DHT22;12022;52.266;10.522;2022-09-09T09:22:28;23.70;99.90
1538;DHT22;12022;52.266;10.522;2022-09-09T09:30:21;23.60;99.90
1538;DHT22;12022;52.266;10.522;2022-09-09T09:35:25;23.30;99.90
1538;DHT22;12022;52.266;10.522;2022-09-09T09:37:52;23.30;99.90
1538;DHT22;12022;52.266;10.522;2022-09-09T09:40:57;23.30;99.90
1538;DHT22;12022;52.266;10.522;2022-09-09T09:43:30;23.30;99.90
1538;DHT22;12022;52.266;10.522;2022-09-09T09:45:58;23.20;99.90
1538;DHT22;12022;52.266;10.522;2022-09-09T09:48:43;23.10;99.90
1538;DHT22;12022;52.266;10.522;2022-09-09T09:51:14;23.10;99.90
1538;DHT22;12022;52.266;10.522;2022-09-09T09:53:44;23.10;99.90
1538;DHT22;12022;52.266;10.522;2022-09-09T09:56:13;23.00;99.90
1538;DHT22;12022;52.266;10.522;2022-09-09T10:01:44;23.00;99.90
1538;DHT22;12022;52.266;10.522;2022-09-09T10:04:16;22.90;99.90
1538;DHT22;12022;52.266;10.522;2022-09-09T10:06:45;22.90;99.90
1538;DHT22;12022;52.266;10.522;2022-09-09T10:29:26;23.00;99.90
1538;DHT22;12022;52.266;10.522;2022-09-09T10:40:18;23.30;99.90
1538;DHT22;12022;52.266;10.522;2022-09-09T10:42:47;23.50;99.90
1538;DHT22;12022;52.266;10.522;2022-09-09T10:45:18;23.50;99.90
1538;DHT22;12022;52.266;10.522;2022-09-09T10:50:59;23.50;99.90
1538;DHT22;12022;52.266;10.522;2022-09-09T10:53:46;23.60;99.90
1538;DHT22;12022;52.266;10.522;2022-09-09T10:56:20;23.60;99.90
1538;DHT22;12022;52.266;10.522;2022-09-09T10:59:14;23.60;99.90
1538;DHT22;12022;52.266;10.522;2022-09-09T11:04:38;23.60;99.90
1538;DHT22;12022;52.266;10.522;2022-09-09T11:07:10;23.50;99.90
1538;DHT22;12022;52.266;10.522;2022-09-09T11:09:45;23.40;99.90
1538;DHT22;12022;52.266;10.522;2022-09-09T11:12:19;23.40;99.90
1538;DHT22;12022;52.266;10.522;2022-09-09T11:14:52;23.40;99.90
1538;DHT22;12022;52.266;10.522;2022-09-09T11:20:05;23.40;99.90
1538;DHT22;12022;52.266;10.522;2022-09-09T11:22:56;23.60;99.90
1538;DHT22;12022;52.266;10.522;2022-09-09T11:25:41;23.60;99.90
1538;DHT22;12022;52.266;10.522;2022-09-09T11:39:53;23.60;99.90
1538;DHT22;12022;52.266;10.522;2022-09-09T11:42:23;23.50;99.90
1538;DHT22;12022;52.266;10.522;2022-09-09T11:44:51;23.40;99.90
1538;DHT22;12022;52.266;10.522;2022-09-09T11:47:27;23.30;99.90
1538;DHT22;12022;52.266;10.522;2022-09-09T11:52:46;23.70;99.90
1538;DHT22;12022;52.266;10.522;2022-09-09T11:55:31;23.90;99.90
1538;DHT22;12022;52.266;10.522;2022-09-09T11:58:03;24.10;99.90
1538;DHT22;12022;52.266;10.522;2022-09-09T12:00:37;24.10;99.90
1538;DHT22;12022;52.266;10.522;2022-09-09T12:03:06;24.10;99.90
1538;DHT22;12022;52.266;10.522;2022-09-09T12:05:40;24.00;99.90
1538;DHT22;12022;52.266;10.522;2022-09-09T12:08:26;24.10;99.90
1538;DHT22;12022;52.266;10.522;2022-09-09T12:10:57;24.10;99.90
1538;DHT22;12022;52.266;10.522;2022-09-09T12:13:27;24.30;99.90
1538;DHT22;12022;52.266;10.522;2022-09-09T12:15:56;24.40;99.90
1538;DHT22;12022;52.266;10.522;2022-09-09T12:21:18;24.90;99.90
1538;DHT22;12022;52.266;10.522;2022-09-09T12:23:50;25.00;99.90
1538;DHT22;12022;52.266;10.522;2022-09-09T12:27:04;25.00;99.90
1538;DHT22;12022;52.266;10.522;2022-09-09T12:29:58;25.20;99.90
1538;DHT22;12022;52.266;10.522;2022-09-09T12:32:28;25.20;99.90
1538;DHT22;12022;52.266;10.522;2022-09-09T12:37:51;25.50;99.90
1538;DHT22;12022;52.266;10.522;2022-09-09T12:40:29;25.80;99.90
1538;DHT22;12022;52.266;10.522;2022-09-09T12:42:56;26.00;99.90
1538;DHT22;12022;52.266;10.522;2022-09-09T12:45:26;26.10;99.90
1538;DHT22;12022;52.266;10.522;2022-09-09T12:47:55;26.30;99.90
1538;DHT22;12022;52.266;10.522;2022-09-09T12:50:32;26.30;99.90
1538;DHT22;12022;52.266;10.522;2022-09-09T12:53:03;26.30;99.90
1538;DHT22;12022;52.266;10.522;2022-09-09T12:55:36;26.30;99.90
1538;DHT22;12022;52.266;10.522;2022-09-09T12:58:05;26.40;99.90
1538;DHT22;12022;52.266;10.522;2022-09-09T13:00:34;26.50;99.90
1538;DHT22;12022;52.266;10.522;2022-09-09T13:03:17;26.70;99.90
1538;DHT22;12022;52.266;10.522;2022-09-09T13:05:44;26.60;99.90
1538;DHT22;12022;52.266;10.522;2022-09-09T13:08:14;26.70;99.90
1538;DHT22;12022;52.266;10.522;2022-09-09T13:10:51;26.60;99.90
1538;DHT22;12022;52.266;10.522;2022-09-09T13:13:36;26.30;99.90
1538;DHT22;12022;52.266;10.522;2022-09-09T13:16:07;26.00;99.90
1538;DHT22;12022;52.266;10.522;2022-09-09T13:18:45;25.70;99.90
1538;DHT22;12022;52.266;10.522;2022-09-09T13:21:13;25.50;99.90
1538;DHT22;12022;52.266;10.522;2022-09-09T13:23:41;25.30;99.90
1538;DHT22;12022;52.266;10.522;2022-09-09T13:26:26;25.20;99.90
1538;DHT22;12022;52.266;10.522;2022-09-09T13:28:54;25.00;99.90
1538;DHT22;12022;52.266;10.522;2022-09-09T13:31:27;24.90;99.90
1538;DHT22;12022;52.266;10.522;2022-09-09T13:33:55;24.90;99.90
1538;DHT22;12022;52.266;10.522;2022-09-09T13:36:34;24.70;99.90
1538;DHT22;12022;52.266;10.522;2022-09-09T13:39:03;24.40;99.90
1538;DHT22;12022;52.266;10.522;2022-09-09T13:41:42;24.00;99.90
1538;DHT22;12022;52.266;10.522;2022-09-09T13:44:33;23.60;99.90
1538;DHT22;12022;52.266;10.522;2022-09-09T13:47:22;23.50;99.90
1538;DHT22;12022;52.266;10.522;2022-09-09T13:49:53;23.40;99.90
1538;DHT22;12022;52.266;10.522;2022-09-09T13:52:20;23.40;99.90
1538;DHT22;12022;52.266;10.522;2022-09-09T13:54:50;23.30;99.90
1538;DHT22;12022;52.266;10.522;2022-09-09T13:57:22;23.40;99.90
1538;DHT22;12022;52.266;10.522;2022-09-09T13:59:53;23.60;99.90
1538;DHT22;12022;52.266;10.522;2022-09-09T14:02:37;23.80;99.90
1538;DHT22;12022;52.266;10.522;2022-09-09T14:05:05;24.00;99.90
1538;DHT22;12022;52.266;10.522;2022-09-09T14:07:32;24.00;99.90
1538;DHT22;12022;52.266;10.522;2022-09-09T14:09:59;24.10;99.90
1538;DHT22;12022;52.266;10.522;2022-09-09T14:12:27;24.10;99.90
1538;DHT22;12022;52.266;10.522;2022-09-09T14:14:54;24.00;99.90
1538;DHT22;12022;52.266;10.522;2022-09-09T14:17:21;23.90;99.90
1538;DHT22;12022;52.266;10.522;2022-09-09T14:19:49;23.80;99.90
1538;DHT22;12022;52.266;10.522;2022-09-09T14:22:16;23.70;99.90
1538;DHT22;12022;52.266;10.522;2022-09-09T14:24:44;23.60;99.90
1538;DHT22;12022;52.266;10.522;2022-09-09T14:27:10;23.40;99.90
1538;DHT22;12022;52.266;10.522;2022-09-09T14:29:37;23.30;99.90
1538;DHT22;12022;52.266;10.522;2022-09-09T14:32:05;23.20;99.90
1538;DHT22;12022;52.266;10.522;2022-09-09T14:34:40;23.20;99.90
1538;DHT22;12022;52.266;10.522;2022-09-09T14:37:07;23.10;99.90
1538;DHT22;12022;52.266;10.522;2022-09-09T14:39:34;22.90;99.90
1538;DHT22;12022;52.266;10.522;2022-09-09T14:42:02;22.90;99.90
1538;DHT22;12022;52.266;10.522;2022-09-09T14:44:29;22.70;99.90
1538;DHT22;12022;52.266;10.522;2022-09-09T14:46:55;22.70;99.90
1538;DHT22;12022;52.266;10.522;2022-09-09T14:49:22;22.50;99.90
1538;DHT22;12022;52.266;10.522;2022-09-09T14:51:52;22.50;99.90
1538;DHT22;12022;52.266;10.522;2022-09-09T14:54:19;22.40;99.90
1538;DHT22;12022;52.266;10.522;2022-09-09T14:56:47;22.30;99.90
1538;DHT22;12022;52.266;10.522;2022-09-09T14:59:14;22.30;99.90
1538;DHT22;12022;52.266;10.522;2022-09-09T15:01:41;22.20;99.90
1538;DHT22;12022;52.266;10.522;2022-09-09T15:04:12;22.20;99.90
1538;DHT22;12022;52.266;10.522;2022-09-09T15:06:39;22.20;99.90
1538;DHT22;12022;52.266;10.522;2022-09-09T15:09:06;22.20;99.90
1538;DHT22;12022;52.266;10.522;2022-09-09T15:11:36;22.30;99.90
1538;DHT22;12022;52.266;10.522;2022-09-09T15:14:08;22.30;99.90
1538;DHT22;12022;52.266;10.522;2022-09-09T15:16:39;22.30;99.90
1538;DHT22;12022;52.266;10.522;2022-09-09T15:19:06;22.30;99.90
1538;DHT22;12022;52.266;10.522;2022-09-09T15:21:35;22.40;99.90
1538;DHT22;12022;52.266;10.522;2022-09-09T15:24:03;22.40;99.90
1538;DHT22;12022;52.266;10.522;2022-09-09T15:26:31;22.40;99.90
1538;DHT22;12022;52.266;10.522;2022-09-09T15:28:58;22.50;99.90
1538;DHT22;12022;52.266;10.522;2022-09-09T15:31:30;22.60;99.90
1538;DHT22;12022;52.266;10.522;2022-09-09T15:34:04;22.60;99.90
1538;DHT22;12022;52.266;10.522;2022-09-09T15:39:05;22.90;99.90
1538;DHT22;12022;52.266;10.522;2022-09-09T15:41:33;22.90;99.90
1538;DHT22;12022;52.266;10.522;2022-09-09T15:44:00;23.10;99.90
1538;DHT22;12022;52.266;10.522;2022-09-09T15:46:33;23.10;99.90
1538;DHT22;12022;52.266;10.522;2022-09-09T15:49:05;23.20;99.90
1538;DHT22;12022;52.266;10.522;2022-09-09T15:51:33;23.20;99.90
1538;DHT22;12022;52.266;10.522;2022-09-09T15:54:12;23.30;99.90
1538;DHT22;12022;52.266;10.522;2022-09-09T15:56:39;23.30;99.90
1538;DHT22;12022;52.266;10.522;2022-09-09T15:59:07;23.40;99.90
1538;DHT22;12022;52.266;10.522;2022-09-09T16:01:34;23.50;99.90
1538;DHT22;12022;52.266;10.522;2022-09-09T16:04:02;23.50;99.90
1538;DHT22;12022;52.266;10.522;2022-09-09T16:06:30;23.50;99.90
1538;DHT22;12022;52.266;10.522;2022-09-09T16:08:58;23.50;99.90
1538;DHT22;12022;52.266;10.522;2022-09-09T16:11:29;23.60;99.90
1538;DHT22;12022;52.266;10.522;2022-09-09T16:14:00;23.70;99.90
1538;DHT22;12022;52.266;10.522;2022-09-09T16:16:29;23.70;99.90
1538;DHT22;12022;52.266;10.522;2022-09-09T16:18:59;23.60;99.90
1538;DHT22;12022;52.266;10.522;2022-09-09T16:21:28;23.60;99.90
1538;DHT22;12022;52.266;10.522;2022-09-09T16:23:57;23.60;99.90
1538;DHT22;12022;52.266;10.522;2022-09-09T16:26:27;23.60;99.90
1538;DHT22;12022;52.266;10.522;2022-09-09T16:28:54;23.50;99.90
1538;DHT22;12022;52.266;10.522;2022-09-09T16:31:23;23.50;99.90
1538;DHT22;12022;52.266;10.522;2022-09-09T16:33:51;23.40;99.90
1538;DHT22;12022;52.266;10.522;2022-09-09T16:36:20;23.40;99.90
1538;DHT22;12022;52.266;10.522;2022-09-09T16:38:51;23.40;99.90
1538;DHT22;12022;52.266;10.522;2022-09-09T16:41:18;23.30;99.90
1538;DHT22;12022;52.266;10.522;2022-09-09T16:43:46;23.20;99.90
1538;DHT22;12022;52.266;10.522;2022-09-09T16:46:16;23.10;99.90
1538;DHT22;12022;52.266;10.522;2022-09-09T16:48:46;22.80;99.90
1538;DHT22;12022;52.266;10.522;2022-09-09T16:51:19;22.60;99.90
1538;DHT22;12022;52.266;10.522;2022-09-09T16:53:47;22.50;99.90
1538;DHT22;12022;52.266;10.522;2022-09-09T16:56:16;22.40;99.90
1538;DHT22;12022;52.266;10.522;2022-09-09T16:58:43;22.20;99.90
1538;DHT22;12022;52.266;10.522;2022-09-09T17:01:16;22.10;99.90
1538;DHT22;12022;52.266;10.522;2022-09-09T17:03:43;22.00;99.90
1538;DHT22;12022;52.266;10.522;2022-09-09T17:06:11;21.80;99.90
1538;DHT22;12022;52.266;10.522;2022-09-09T17:08:40;21.80;99.90
1538;DHT22;12022;52.266;10.522;2022-09-09T17:11:16;21.70;99.90
1538;DHT22;12022;52.266;10.522;2022-09-09T17:13:46;21.30;99.90
1538;DHT22;12022;52.266;10.522;2022-09-09T17:16:16;21.50;99.90
1538;DHT22;12022;52.266;10.522;2022-09-09T17:18:44;21.40;99.90
1538;DHT22;12022;52.266;10.522;2022-09-09T17:21:15;21.20;99.90
1538;DHT22;12022;52.266;10.522;2022-09-09T17:23:42;21.10;99.90
1538;DHT22;12022;52.266;10.522;2022-09-09T17:26:13;21.10;99.90
1538;DHT22;12022;52.266;10.522;2022-09-09T17:28:41;21.00;99.90
1538;DHT22;12022;52.266;10.522;2022-09-09T17:31:11;20.90;99.90
1538;DHT22;12022;52.266;10.522;2022-09-09T17:33:40;20.80;99.90
1538;DHT22;12022;52.266;10.522;2022-09-09T17:36:22;20.70;99.90
1538;DHT22;12022;52.266;10.522;2022-09-09T17:38:51;20.70;99.90
1538;DHT22;12022;52.266;10.522;2022-09-09T17:41:24;20.60;99.90
1538;DHT22;12022;52.266;10.522;2022-09-09T17:43:52;20.50;99.90
1538;DHT22;12022;52.266;10.522;2022-09-09T17:46:20;20.50;99.90
1538;DHT22;12022;52.266;10.522;2022-09-09T17:48:50;20.40;99.90
1538;DHT22;12022;52.266;10.522;2022-09-09T17:51:20;20.30;99.90
1538;DHT22;12022;52.266;10.522;2022-09-09T17:53:59;20.20;99.90
1538;DHT22;12022;52.266;10.522;2022-09-09T17:56:28;20.20;99.90
1538;DHT22;12022;52.266;10.522;2022-09-09T17:58:58;20.10;99.90
1538;DHT22;12022;52.266;10.522;2022-09-09T18:01:28;20.10;99.90
1538;DHT22;12022;52.266;10.522;2022-09-09T18:03:59;20.00;99.90
1538;DHT22;12022;52.266;10.522;2022-09-09T18:06:31;20.00;99.90
1538;DHT22;12022;52.266;10.522;2022-09-09T18:09:02;19.90;99.90